createdAt,value
2017-10-31T00:01:47.830Z,44.74
2017-10-31T00:04:15.438Z,44.83
2017-10-31T00:06:43.028Z,45.13
2017-10-31T00:09:10.640Z,44.83
2017-10-31T00:11:38.215Z,44.81
2017-10-31T00:14:06.015Z,44.70
2017-10-31T00:16:33.645Z,44.80
2017-10-31T00:19:01.287Z,44.99
2017-10-31T00:21:28.908Z,44.87
2017-10-31T00:23:56.502Z,44.97
2017-10-31T00:26:24.155Z,45.07
2017-10-31T00:28:51.730Z,44.94
2017-10-31T00:31:19.348Z,44.94
2017-10-31T00:33:46.910Z,44.95
2017-10-31T00:36:14.523Z,44.98
2017-10-31T00:38:42.130Z,45.16
2017-10-31T00:41:09.716Z,44.98
2017-10-31T00:43:37.267Z,45.53
2017-10-31T00:46:04.908Z,45.29
2017-10-31T00:48:32.688Z,45.44
2017-10-31T00:51:00.678Z,45.73
2017-10-31T00:53:28.395Z,45.91
2017-10-31T00:55:56.033Z,46.17
2017-10-31T00:58:23.612Z,46.25
2017-10-31T01:00:51.189Z,46.48
2017-10-31T01:03:18.762Z,46.69
2017-10-31T01:05:46.438Z,47.02
2017-10-31T01:08:14.104Z,47.33
2017-10-31T01:10:41.707Z,47.34
2017-10-31T01:13:09.267Z,47.84
2017-10-31T01:15:36.979Z,47.74
2017-10-31T01:18:04.579Z,48.23
2017-10-31T01:20:32.174Z,48.25
2017-10-31T01:22:59.795Z,48.13
2017-10-31T01:25:27.463Z,48.35
2017-10-31T01:27:55.109Z,47.99
2017-10-31T01:30:22.881Z,48.06
2017-10-31T01:32:50.462Z,48.01
2017-10-31T01:35:18.010Z,47.80
2017-10-31T01:37:45.659Z,48.05
2017-10-31T01:40:13.507Z,48.15
2017-10-31T01:42:41.360Z,48.21
2017-10-31T01:45:09.541Z,48.24
2017-10-31T01:47:37.148Z,48.26
2017-10-31T01:50:04.754Z,48.39
2017-10-31T01:52:32.778Z,48.35
2017-10-31T01:55:00.394Z,48.91
2017-10-31T01:57:28.054Z,48.68
2017-10-31T01:59:55.702Z,48.95
2017-10-31T02:02:23.331Z,49.59
2017-10-31T02:04:50.918Z,49.10
2017-10-31T02:07:18.583Z,49.34
2017-10-31T02:09:46.182Z,49.56
2017-10-31T02:12:13.780Z,49.90
2017-10-31T02:14:41.443Z,50.13
2017-10-31T02:17:09.051Z,50.06
2017-10-31T02:19:36.825Z,50.64
2017-10-31T02:22:04.655Z,50.50
2017-10-31T02:24:32.252Z,50.12
2017-10-31T02:26:59.958Z,50.18
2017-10-31T02:29:27.537Z,49.81
2017-10-31T02:31:55.179Z,49.68
2017-10-31T02:34:22.766Z,49.61
2017-10-31T02:36:50.580Z,49.67
2017-10-31T02:39:20.174Z,49.76
2017-10-31T02:41:47.978Z,49.34
2017-10-31T02:44:15.569Z,49.39
2017-10-31T02:57:00.752Z,49.99
2017-10-31T03:00:04.830Z,49.84
2017-10-31T03:02:32.509Z,49.97
2017-10-31T03:05:00.144Z,50.04
2017-10-31T03:07:27.766Z,50.01
2017-10-31T03:09:55.419Z,50.68
2017-10-31T03:12:23.022Z,50.42
2017-10-31T03:14:50.792Z,50.31
2017-10-31T03:17:18.391Z,49.93
2017-10-31T03:19:46.294Z,49.69
2017-10-31T03:22:13.914Z,49.85
2017-10-31T03:24:41.558Z,49.70
2017-10-31T03:27:09.144Z,49.82
2017-10-31T03:29:36.847Z,49.87
2017-10-31T03:32:04.551Z,49.71
2017-10-31T03:34:32.369Z,49.88
2017-10-31T03:36:59.976Z,49.79
2017-10-31T03:39:27.650Z,49.94
2017-10-31T03:41:55.529Z,49.86
2017-10-31T03:44:23.357Z,49.91
2017-10-31T03:46:50.984Z,50.04
2017-10-31T03:49:18.609Z,49.85
2017-10-31T03:51:47.115Z,49.74
2017-10-31T03:54:15.260Z,49.51
2017-10-31T03:56:42.837Z,49.49
2017-10-31T03:59:11.323Z,49.46
2017-10-31T04:01:38.987Z,49.68
2017-10-31T04:04:06.826Z,49.67
2017-10-31T04:06:34.496Z,49.46
2017-10-31T04:09:02.156Z,49.58
2017-10-31T04:11:29.744Z,49.58
2017-10-31T04:13:57.463Z,49.89
2017-10-31T04:16:25.149Z,49.62
2017-10-31T04:18:52.756Z,49.60
2017-10-31T04:21:20.334Z,49.53
2017-10-31T04:23:48.254Z,49.45
2017-10-31T04:26:15.856Z,49.43
2017-10-31T04:28:43.544Z,49.75
2017-10-31T04:31:11.172Z,49.59
2017-10-31T04:33:39.303Z,49.60
2017-10-31T04:36:07.115Z,49.77
2017-10-31T04:38:34.841Z,50.22
2017-10-31T04:41:02.614Z,50.00
2017-10-31T04:43:30.261Z,49.97
2017-10-31T04:45:58.080Z,49.94
2017-10-31T04:48:25.707Z,50.09
2017-10-31T04:50:53.543Z,50.28
2017-10-31T04:53:21.207Z,50.51
2017-10-31T04:58:29.557Z,50.35
2017-10-31T05:00:57.192Z,50.31
2017-10-31T05:03:24.759Z,50.34
2017-10-31T05:05:52.431Z,50.33
2017-10-31T05:08:21.007Z,50.14
2017-10-31T05:10:49.433Z,49.92
2017-10-31T05:13:17.093Z,48.97
2017-10-31T05:15:44.780Z,50.68
2017-10-31T05:18:16.193Z,48.72
2017-10-31T05:20:43.760Z,47.57
2017-10-31T05:23:12.977Z,45.57
2017-10-31T05:25:40.753Z,44.62
2017-10-31T05:28:08.677Z,45.60
2017-10-31T05:30:36.330Z,44.33
2017-10-31T05:33:03.983Z,42.90
2017-10-31T05:35:31.684Z,41.67
2017-10-31T05:37:59.326Z,40.92
2017-10-31T05:40:27.301Z,39.69
2017-10-31T05:42:54.925Z,39.11
2017-10-31T05:45:22.667Z,39.93
2017-10-31T05:47:51.776Z,39.06
2017-10-31T05:50:19.579Z,37.21
2017-10-31T05:52:47.491Z,38.02
2017-10-31T05:55:15.780Z,36.90
2017-10-31T05:57:43.729Z,36.15
2017-10-31T06:00:11.494Z,34.80
2017-10-31T06:02:40.087Z,35.76
2017-10-31T06:05:07.906Z,35.29
2017-10-31T06:07:35.691Z,34.07
2017-10-31T06:10:04.369Z,33.68
2017-10-31T06:12:32.618Z,34.16
2017-10-31T06:15:00.957Z,34.52
2017-10-31T06:17:30.474Z,33.98
2017-10-31T06:19:59.979Z,33.88
2017-10-31T06:22:34.488Z,33.46
2017-10-31T06:25:08.500Z,32.55
2017-10-31T06:27:41.823Z,33.00
2017-10-31T06:30:15.293Z,31.57
2017-10-31T06:32:43.262Z,31.71
2017-10-31T06:35:11.008Z,30.19
2017-10-31T06:37:38.680Z,30.98
2017-10-31T06:40:06.446Z,30.28
2017-10-31T06:42:34.376Z,31.80
2017-10-31T06:45:02.172Z,29.71
2017-10-31T06:47:30.331Z,30.79
2017-10-31T06:49:59.124Z,29.44
2017-10-31T06:52:27.339Z,29.29
2017-10-31T06:54:54.991Z,28.28
2017-10-31T06:57:22.638Z,28.17
2017-10-31T06:59:50.366Z,27.90
2017-10-31T07:02:17.966Z,26.95
2017-10-31T07:04:46.377Z,27.50
2017-10-31T07:07:14.879Z,28.22
2017-10-31T07:09:42.567Z,27.07
2017-10-31T07:12:10.203Z,27.54
2017-10-31T07:14:37.986Z,27.54
2017-10-31T07:17:05.595Z,26.15
2017-10-31T07:19:34.105Z,25.40
2017-10-31T07:22:01.788Z,26.61
2017-10-31T07:24:29.522Z,25.99
2017-10-31T07:26:57.207Z,25.62
2017-10-31T07:29:24.853Z,25.30
2017-10-31T07:31:52.799Z,24.43
2017-10-31T07:34:20.583Z,24.69
2017-10-31T07:36:48.231Z,24.30
2017-10-31T07:39:15.893Z,23.57
2017-10-31T07:41:43.505Z,23.78
2017-10-31T07:44:11.113Z,24.82
2017-10-31T07:46:38.705Z,22.83
2017-10-31T07:49:06.369Z,22.25
2017-10-31T07:51:34.145Z,22.01
2017-10-31T07:54:01.819Z,22.46
2017-10-31T07:56:29.495Z,22.27
2017-10-31T07:58:57.204Z,22.09
2017-10-31T08:01:24.922Z,21.37
2017-10-31T08:03:52.607Z,21.29
2017-10-31T08:06:23.048Z,20.85
2017-10-31T08:08:50.670Z,21.33
2017-10-31T08:11:18.274Z,20.88
2017-10-31T08:13:46.462Z,20.38
2017-10-31T08:16:14.135Z,20.73
2017-10-31T08:18:41.780Z,19.93
2017-10-31T08:21:09.559Z,20.37
2017-10-31T08:23:37.534Z,19.59
2017-10-31T08:26:05.352Z,20.05
2017-10-31T08:28:32.941Z,19.89
2017-10-31T08:31:00.579Z,20.42
2017-10-31T08:33:28.222Z,20.68
2017-10-31T08:35:55.884Z,20.86
2017-10-31T08:38:23.549Z,19.68
2017-10-31T08:40:51.361Z,19.51
2017-10-31T08:43:18.990Z,19.95
2017-10-31T08:45:46.651Z,20.27
2017-10-31T08:48:14.298Z,19.91
2017-10-31T08:50:41.893Z,20.15
2017-10-31T08:53:09.537Z,18.86
2017-10-31T08:55:37.160Z,19.46
2017-10-31T08:58:04.760Z,19.08
2017-10-31T09:00:32.466Z,19.37
2017-10-31T09:03:00.284Z,19.96
2017-10-31T09:05:27.978Z,20.24
2017-10-31T09:07:55.656Z,20.16
2017-10-31T09:10:23.667Z,20.74
2017-10-31T09:12:51.316Z,20.73
2017-10-31T09:15:19.214Z,20.76
2017-10-31T09:17:46.866Z,21.33
2017-10-31T09:20:14.618Z,20.70
2017-10-31T09:22:42.206Z,20.62
2017-10-31T09:25:09.856Z,20.70
2017-10-31T09:27:37.455Z,21.42
2017-10-31T09:30:09.170Z,21.32
2017-10-31T09:32:36.996Z,22.21
2017-10-31T09:35:04.779Z,22.23
2017-10-31T09:37:32.446Z,22.18
2017-10-31T09:40:00.030Z,22.61
2017-10-31T09:42:27.652Z,23.53
2017-10-31T09:44:55.319Z,23.10
2017-10-31T09:47:23.148Z,23.89
2017-10-31T09:49:50.803Z,23.54
2017-10-31T09:52:18.424Z,23.75
2017-10-31T09:54:46.054Z,24.15
2017-10-31T09:57:13.583Z,24.87
2017-10-31T09:59:41.604Z,24.63
2017-10-31T10:02:09.268Z,24.39
2017-10-31T10:04:36.930Z,24.69
2017-10-31T10:07:05.124Z,24.72
2017-10-31T10:09:32.732Z,24.78
2017-10-31T10:12:02.342Z,24.58
2017-10-31T10:14:29.966Z,24.23
2017-10-31T10:16:57.937Z,24.52
2017-10-31T10:19:25.692Z,24.83
2017-10-31T10:21:53.875Z,24.67
2017-10-31T10:24:21.475Z,25.10
2017-10-31T10:26:49.694Z,25.46
2017-10-31T10:29:17.231Z,25.12
2017-10-31T10:31:44.833Z,25.18
2017-10-31T10:34:12.407Z,25.40
2017-10-31T10:36:39.976Z,24.71
2017-10-31T10:39:07.608Z,24.66
2017-10-31T10:41:35.264Z,24.79
2017-10-31T10:44:03.021Z,24.58
2017-10-31T10:46:30.995Z,24.96
2017-10-31T10:48:58.594Z,24.63
2017-10-31T10:51:26.394Z,24.71
2017-10-31T10:53:53.984Z,24.70
2017-10-31T10:56:21.554Z,24.41
2017-10-31T10:58:49.208Z,24.41
2017-10-31T11:01:16.876Z,24.55
2017-10-31T11:03:44.980Z,24.89
2017-10-31T11:06:12.715Z,24.68
2017-10-31T11:08:40.649Z,24.30
2017-10-31T11:11:08.221Z,24.54
2017-10-31T11:13:36.045Z,24.53
2017-10-31T11:16:03.699Z,24.90
2017-10-31T11:18:31.547Z,24.63
2017-10-31T11:20:59.377Z,24.82
2017-10-31T11:23:27.016Z,24.14
2017-10-31T11:25:54.881Z,24.37
2017-10-31T11:28:22.508Z,24.31
2017-10-31T11:30:50.111Z,24.47
2017-10-31T11:33:17.718Z,24.44
2017-10-31T11:35:45.383Z,24.07
2017-10-31T11:38:13.169Z,24.61
2017-10-31T11:40:40.933Z,24.50
2017-10-31T11:43:08.550Z,24.40
2017-10-31T11:45:36.186Z,24.24
2017-10-31T11:48:05.056Z,24.13
2017-10-31T11:50:32.777Z,24.56
2017-10-31T11:53:00.579Z,24.45
2017-10-31T11:55:28.247Z,24.33
2017-10-31T11:57:55.923Z,24.38
2017-10-31T12:00:23.564Z,24.74
2017-10-31T12:02:51.164Z,24.96
2017-10-31T12:05:18.754Z,24.52
2017-10-31T12:07:46.394Z,24.88
2017-10-31T12:10:13.991Z,25.03
2017-10-31T12:12:41.798Z,25.10
2017-10-31T12:15:09.410Z,25.22
2017-10-31T12:17:37.012Z,25.50
2017-10-31T12:20:04.632Z,25.47
2017-10-31T12:22:32.458Z,25.45
2017-10-31T12:25:00.067Z,25.77
2017-10-31T12:27:27.874Z,26.02
2017-10-31T12:29:55.558Z,25.95
2017-10-31T12:32:23.377Z,26.46
2017-10-31T12:34:50.990Z,26.55
2017-10-31T12:37:18.562Z,26.77
2017-10-31T12:39:46.307Z,26.59
2017-10-31T12:42:14.290Z,26.52
2017-10-31T12:44:41.977Z,26.36
2017-10-31T12:47:09.737Z,26.61
2017-10-31T12:49:37.570Z,26.70
2017-10-31T12:52:05.207Z,26.69
2017-10-31T12:54:32.931Z,27.24
2017-10-31T12:57:00.567Z,27.50
2017-10-31T12:59:28.191Z,27.29
2017-10-31T13:01:55.884Z,27.07
2017-10-31T13:04:23.555Z,27.36
2017-10-31T13:06:51.230Z,27.12
2017-10-31T13:09:18.932Z,27.28
2017-10-31T13:11:46.531Z,27.42
2017-10-31T13:14:14.248Z,27.59
2017-10-31T13:16:41.927Z,27.74
2017-10-31T13:19:09.917Z,28.01
2017-10-31T13:21:37.590Z,27.95
2017-10-31T13:24:05.277Z,28.62
2017-10-31T13:26:33.276Z,28.55
2017-10-31T13:29:02.510Z,28.70
2017-10-31T13:31:30.746Z,28.76
2017-10-31T13:33:59.898Z,29.09
2017-10-31T13:36:27.888Z,28.44
2017-10-31T13:38:56.014Z,28.35
2017-10-31T13:41:25.174Z,28.35
2017-10-31T13:43:53.091Z,28.24
2017-10-31T13:46:20.754Z,28.49
2017-10-31T13:48:48.469Z,28.18
2017-10-31T13:51:16.576Z,28.37
2017-10-31T13:53:44.396Z,28.70
2017-10-31T13:56:12.050Z,28.91
2017-10-31T13:58:39.670Z,29.06
2017-10-31T14:01:07.304Z,29.27
2017-10-31T14:03:35.208Z,29.41
2017-10-31T14:06:03.176Z,29.39
2017-10-31T14:08:31.581Z,29.54
2017-10-31T14:10:59.679Z,29.46
2017-10-31T14:13:27.292Z,29.75
2017-10-31T14:15:54.994Z,29.73
2017-10-31T14:18:22.636Z,30.24
2017-10-31T14:20:51.157Z,30.20
2017-10-31T14:23:18.763Z,30.32
2017-10-31T14:25:46.383Z,30.23
2017-10-31T14:28:14.027Z,30.69
2017-10-31T14:30:41.690Z,30.72
2017-10-31T14:33:09.239Z,30.97
2017-10-31T14:35:37.122Z,31.02
2017-10-31T14:38:04.841Z,31.22
2017-10-31T14:40:33.198Z,31.42
2017-10-31T14:43:01.035Z,31.45
2017-10-31T14:45:28.706Z,31.43
2017-10-31T14:47:56.509Z,31.61
2017-10-31T14:50:24.485Z,31.74
2017-10-31T14:52:52.153Z,32.11
2017-10-31T14:55:20.117Z,32.19
2017-10-31T14:57:48.002Z,32.37
2017-10-31T15:00:15.663Z,32.00
2017-10-31T15:02:44.102Z,32.49
2017-10-31T15:05:11.724Z,32.67
2017-10-31T15:07:39.354Z,32.48
2017-10-31T15:10:07.644Z,32.80
2017-10-31T15:12:35.551Z,32.62
2017-10-31T15:15:03.202Z,32.92
2017-10-31T15:17:31.213Z,32.73
2017-10-31T15:19:59.102Z,32.92
2017-10-31T15:22:26.791Z,33.25
2017-10-31T15:24:54.451Z,33.28
2017-10-31T15:27:22.143Z,33.65
2017-10-31T15:29:49.775Z,33.89
2017-10-31T15:32:17.425Z,34.05
2017-10-31T15:34:45.272Z,33.90
2017-10-31T15:37:12.899Z,33.91
2017-10-31T15:39:40.549Z,33.79
2017-10-31T15:42:09.242Z,33.96
2017-10-31T15:44:37.155Z,34.32
2017-10-31T15:47:04.884Z,33.95
2017-10-31T15:49:32.711Z,34.50
2017-10-31T15:52:00.370Z,34.48
2017-10-31T15:54:28.359Z,34.51
2017-10-31T15:56:55.994Z,34.37
2017-10-31T15:59:24.032Z,34.91
2017-10-31T16:01:51.756Z,34.74
2017-10-31T16:04:19.743Z,34.82
2017-10-31T16:06:47.541Z,34.57
2017-10-31T16:09:15.345Z,34.73
2017-10-31T16:11:43.159Z,35.16
2017-10-31T16:14:12.352Z,34.86
2017-10-31T16:16:39.966Z,34.92
2017-10-31T16:19:07.587Z,34.74
2017-10-31T16:21:35.179Z,34.81
2017-10-31T16:24:03.504Z,34.95
2017-10-31T16:26:31.984Z,35.30
2017-10-31T16:28:59.875Z,35.52
2017-10-31T16:31:31.622Z,35.43
2017-10-31T16:33:59.599Z,35.39
2017-10-31T16:36:27.244Z,35.56
2017-10-31T16:38:55.397Z,36.06
2017-10-31T16:41:23.979Z,35.90
2017-10-31T16:43:51.801Z,35.71
2017-10-31T16:46:19.523Z,35.58
2017-10-31T16:48:47.150Z,36.17
2017-10-31T16:51:15.242Z,36.02
2017-10-31T16:53:43.646Z,35.52
2017-10-31T16:56:11.609Z,35.83
2017-10-31T16:58:39.458Z,36.19
2017-10-31T17:01:07.167Z,36.46
2017-10-31T17:03:34.967Z,36.52
2017-10-31T17:06:02.622Z,36.47
2017-10-31T17:08:32.235Z,36.80
2017-10-31T17:10:59.859Z,36.85
2017-10-31T17:13:39.394Z,36.98
2017-10-31T17:18:42.941Z,37.06
2017-10-31T17:21:39.798Z,36.97
2017-10-31T17:24:16.605Z,37.62
2017-10-31T17:26:44.209Z,37.75
2017-10-31T17:29:12.364Z,37.53
2017-10-31T17:31:40.001Z,37.53
2017-10-31T17:34:07.977Z,37.58
2017-10-31T17:36:35.756Z,37.92
2017-10-31T17:39:03.757Z,56.80
2017-10-31T17:41:31.323Z,38.13
2017-10-31T17:43:58.941Z,38.09
2017-10-31T17:46:26.855Z,38.11
2017-10-31T17:48:54.638Z,38.97
2017-10-31T17:51:22.342Z,39.28
2017-10-31T17:53:50.045Z,39.94
2017-10-31T17:56:17.750Z,40.04
2017-10-31T17:58:45.572Z,40.13
2017-10-31T18:01:13.307Z,40.22
2017-10-31T18:03:40.917Z,40.46
2017-10-31T18:06:08.694Z,41.47
2017-10-31T18:08:36.338Z,41.08
2017-10-31T18:11:04.225Z,41.54
2017-10-31T18:13:31.868Z,41.73
2017-10-31T18:15:59.457Z,41.82
2017-10-31T18:18:27.521Z,42.25
2017-10-31T18:20:55.148Z,42.15
2017-10-31T18:23:22.782Z,42.46
2017-10-31T18:25:51.564Z,42.59
2017-10-31T18:28:23.621Z,42.82
2017-10-31T18:30:51.323Z,43.09
2017-10-31T18:33:19.193Z,43.17
2017-10-31T18:35:46.844Z,42.88
2017-10-31T18:38:14.484Z,43.08
2017-10-31T18:40:42.316Z,43.19
2017-10-31T18:43:09.884Z,42.99
2017-10-31T18:45:37.480Z,43.12
2017-10-31T18:48:05.126Z,43.27
2017-10-31T18:50:32.936Z,42.61
2017-10-31T18:53:00.537Z,42.67
2017-10-31T18:55:28.120Z,42.95
2017-10-31T18:57:55.872Z,42.61
2017-10-31T19:00:24.534Z,42.62
2017-10-31T19:05:37.099Z,42.02
2017-10-31T19:08:08.013Z,42.39
2017-10-31T19:14:08.652Z,42.93
2017-10-31T19:16:36.425Z,42.74
2017-10-31T19:19:04.651Z,43.15
2017-10-31T19:21:32.259Z,43.12
2017-10-31T19:23:59.980Z,43.61
2017-10-31T19:26:28.249Z,42.89
2017-10-31T19:28:55.869Z,43.16
2017-10-31T19:31:24.630Z,43.52
2017-10-31T19:33:53.914Z,43.51
2017-10-31T19:36:21.797Z,43.74
2017-10-31T19:38:49.424Z,44.05
2017-10-31T19:41:17.260Z,43.96
2017-10-31T19:43:44.949Z,44.54
2017-10-31T19:46:12.675Z,44.00
2017-10-31T19:48:40.582Z,44.62
2017-10-31T19:51:08.144Z,44.32
2017-10-31T19:53:35.787Z,44.17
2017-10-31T19:56:03.390Z,44.05
2017-10-31T19:58:30.986Z,43.88
2017-10-31T20:00:58.591Z,44.19
2017-10-31T20:03:26.317Z,44.47
2017-10-31T20:05:53.895Z,43.89
2017-10-31T20:08:21.592Z,44.51
2017-10-31T20:10:49.366Z,44.53
2017-10-31T20:13:17.051Z,44.14
2017-10-31T20:15:45.550Z,44.35
2017-10-31T20:18:13.990Z,44.07
2017-10-31T20:20:42.419Z,44.39
2017-10-31T20:23:10.025Z,44.21
2017-10-31T20:25:37.603Z,44.42
2017-10-31T20:28:05.410Z,44.77
2017-10-31T20:30:33.591Z,43.91
2017-10-31T20:33:01.230Z,44.21
2017-10-31T20:35:29.071Z,43.73
2017-10-31T20:37:56.678Z,44.99
2017-10-31T20:40:25.180Z,43.91
2017-10-31T20:42:53.032Z,44.18
2017-10-31T20:45:20.622Z,44.81
2017-10-31T20:47:48.265Z,44.60
2017-10-31T20:50:16.051Z,44.48
2017-10-31T20:52:43.789Z,44.47
2017-10-31T20:55:11.318Z,44.42
2017-10-31T20:57:39.680Z,44.97
2017-10-31T21:00:10.122Z,45.23
2017-10-31T21:02:38.671Z,44.92
2017-10-31T21:05:06.238Z,45.04
2017-10-31T21:07:33.846Z,45.15
2017-10-31T21:10:02.006Z,45.33
2017-10-31T21:12:29.745Z,45.10
2017-10-31T21:14:57.562Z,45.14
2017-10-31T21:17:26.121Z,45.05
2017-10-31T21:19:54.634Z,44.79
2017-10-31T21:22:22.488Z,44.97
2017-10-31T21:24:50.024Z,45.10
2017-10-31T21:27:17.754Z,44.90
2017-10-31T21:29:45.344Z,45.11
2017-10-31T21:32:13.007Z,45.17
2017-10-31T21:34:40.608Z,45.46
2017-10-31T21:37:08.443Z,45.54
2017-10-31T21:39:36.093Z,45.90
2017-10-31T21:42:04.148Z,45.27
2017-10-31T21:44:32.619Z,44.86
2017-10-31T21:47:00.319Z,45.34
2017-10-31T21:49:28.210Z,45.96
2017-10-31T21:51:55.865Z,45.79
2017-10-31T21:54:23.494Z,46.48
2017-10-31T21:56:52.136Z,46.16
2017-10-31T21:59:20.284Z,46.13
2017-10-31T22:01:48.671Z,45.92
2017-10-31T22:04:16.285Z,46.21
2017-10-31T22:06:43.845Z,46.24
2017-10-31T22:09:11.429Z,46.16
2017-10-31T22:15:08.303Z,46.53
2017-10-31T22:17:35.916Z,46.62
2017-10-31T22:20:03.705Z,47.19
2017-10-31T22:22:31.330Z,47.34
2017-10-31T22:24:58.923Z,47.43
2017-10-31T22:27:26.492Z,47.31
2017-10-31T22:29:54.161Z,47.25
2017-10-31T22:32:21.827Z,47.33
2017-10-31T22:34:49.422Z,47.14
2017-10-31T22:37:17.171Z,46.68
2017-10-31T22:39:44.785Z,47.35
2017-10-31T22:42:12.400Z,47.69
2017-10-31T22:44:40.037Z,46.90
2017-10-31T22:47:07.646Z,46.87
2017-10-31T22:49:35.425Z,46.82
2017-10-31T22:52:03.023Z,46.30
2017-10-31T22:54:30.857Z,46.20
2017-10-31T22:56:58.671Z,46.10
2017-10-31T22:59:26.247Z,45.83
2017-10-31T23:01:53.853Z,46.20
2017-10-31T23:04:22.567Z,46.38
2017-10-31T23:06:50.354Z,46.43
2017-10-31T23:09:17.999Z,46.91
2017-10-31T23:11:45.541Z,46.69
2017-10-31T23:14:13.371Z,46.25
2017-10-31T23:16:40.978Z,46.56
2017-10-31T23:19:08.616Z,46.43
2017-10-31T23:21:36.391Z,46.43
2017-10-31T23:24:04.026Z,46.57
2017-10-31T23:26:31.784Z,46.67
2017-10-31T23:28:59.376Z,46.92
2017-10-31T23:31:27.189Z,46.46
2017-10-31T23:33:54.736Z,46.47
2017-10-31T23:36:22.522Z,46.66
2017-10-31T23:38:50.151Z,46.67
2017-10-31T23:41:17.713Z,46.93
2017-10-31T23:43:45.328Z,47.37
2017-10-31T23:46:13.003Z,47.02
2017-10-31T23:48:40.639Z,47.18
2017-10-31T23:51:08.313Z,47.14
2017-10-31T23:53:35.955Z,47.21
2017-10-31T23:56:03.574Z,46.80
2017-10-31T23:58:31.137Z,46.81
